»·PEaware :: WAT847 KDEN-KSLC

WAT847 :: KDEN-KSLC

FLIGHT INFORMATION

Flight Status: Arrived
Operator:
Walker Air Transport
More flights by this operator :: More flights under this callsign
Pilot: Charlton B. (28558)
Aircraft: EMBRAER EMB-170/175
(E170)
More flights by this aircraft type
Origin: KDEN Denver Intl
United States
Destination: KSLC Salt Lake City Intl
United States
More flights between these airports :: More routes between these airports
Route: ZIMMR3 CHNGY EKR LEEHY5
File this flight plan on PilotEdge
Remarks: RMK / SIMBRIEF
Altitude:
(Current/Filed)
30,000ft
Speed:
(Current/Filed)
455kts
Departed: 29-Jun-22 03:36 PM
Arrived: 29-Jun-22 04:48 PM
Distance/Time
Traveled:
339nm/1:12
Distance/Time
To Go:
Arrived

Flight Plot

Page will automatically refresh every two minutes.

Flight plan parsing failed; only flown route is shown


Map Options




Map Legend


Flown Route
Filed Route
Departure Airport
Arrival Airport
Navaid (VOR, NDB)
Fix

Horizontal Profiles

Position Reports

Time Latitude Longitude Heading Altitude Ground
Speed
29-Jun-22 14:15 39.859381 -104.666978 180 5437ft 0kts
29-Jun-22 14:16 39.859381 -104.666978 180 5437ft 0kts
29-Jun-22 14:17 39.859381 -104.666978 180 5437ft 0kts
29-Jun-22 14:18 39.859381 -104.666978 180 5437ft 0kts
29-Jun-22 14:19 39.859381 -104.666978 180 5437ft 0kts
29-Jun-22 14:20 39.859381 -104.666978 180 5437ft 0kts
29-Jun-22 14:21 39.859381 -104.666978 180 5437ft 0kts
29-Jun-22 14:22 39.859381 -104.666978 180 5437ft 0kts
29-Jun-22 14:24 39.859381 -104.666978 180 5437ft 0kts
29-Jun-22 14:25 39.859381 -104.666978 180 5437ft 0kts
29-Jun-22 14:26 39.859381 -104.666978 180 5437ft 0kts
29-Jun-22 14:27 39.859381 -104.666978 180 5437ft 0kts
29-Jun-22 14:28 39.859381 -104.666978 180 5437ft 0kts
29-Jun-22 14:29 39.859381 -104.666978 180 5437ft 0kts
29-Jun-22 14:30 39.859381 -104.666978 180 5437ft 0kts
29-Jun-22 14:31 39.859381 -104.666978 180 5437ft 0kts
29-Jun-22 14:32 39.859381 -104.666978 180 5437ft 0kts
29-Jun-22 14:33 39.859381 -104.666978 180 5437ft 0kts
29-Jun-22 14:34 39.859381 -104.666978 180 5437ft 0kts
29-Jun-22 14:35 39.859381 -104.666978 180 5437ft 0kts
29-Jun-22 14:36 39.859381 -104.666978 180 5437ft 0kts
29-Jun-22 14:37 39.859381 -104.666978 180 5437ft 0kts
29-Jun-22 14:38 39.859381 -104.666978 180 5437ft 0kts
29-Jun-22 14:39 39.859381 -104.666978 180 5437ft 0kts
29-Jun-22 14:40 39.859381 -104.666978 180 5437ft 0kts
29-Jun-22 14:41 39.859381 -104.666978 180 5437ft 0kts
29-Jun-22 14:42 39.859381 -104.666978 180 5437ft 0kts
29-Jun-22 14:43 39.859381 -104.666978 180 5437ft 0kts
29-Jun-22 14:44 39.859381 -104.666978 180 5437ft 0kts
29-Jun-22 14:46 39.859381 -104.666978 180 5437ft 0kts
29-Jun-22 14:47 39.859381 -104.666978 180 5437ft 0kts
29-Jun-22 14:48 39.859381 -104.666978 180 5437ft 0kts
29-Jun-22 14:49 39.859381 -104.666978 180 5437ft 0kts
29-Jun-22 14:50 39.859381 -104.666978 180 5437ft 0kts
29-Jun-22 14:51 39.859381 -104.666978 180 5437ft 0kts
29-Jun-22 14:52 39.859381 -104.666978 180 5437ft 0kts
29-Jun-22 14:53 39.859381 -104.666978 180 5437ft 0kts
29-Jun-22 14:53 39.859381 -104.666978 180 5437ft 0kts
29-Jun-22 14:54 39.859381 -104.666978 180 5437ft 0kts
29-Jun-22 14:56 39.859381 -104.666978 180 5437ft 0kts
29-Jun-22 14:57 39.859381 -104.666978 180 5437ft 0kts
29-Jun-22 14:58 39.859381 -104.666978 180 5437ft 0kts
29-Jun-22 14:58 39.859381 -104.666978 180 5437ft 0kts
29-Jun-22 14:59 39.859381 -104.666978 180 5437ft 0kts
29-Jun-22 15:03 39.859381 -104.666978 180 5437ft 0kts
29-Jun-22 15:04 39.859381 -104.666978 180 5437ft 0kts
29-Jun-22 15:05 39.859381 -104.666978 180 5437ft 0kts
29-Jun-22 15:06 39.859381 -104.666978 180 5437ft 0kts
29-Jun-22 15:07 39.859381 -104.666978 180 5437ft 0kts
29-Jun-22 15:08 39.859381 -104.666978 180 5437ft 0kts
29-Jun-22 15:09 39.859381 -104.666978 180 5437ft 0kts
29-Jun-22 15:10 39.859381 -104.666978 180 5437ft 0kts
29-Jun-22 15:11 39.859381 -104.666978 180 5437ft 0kts
29-Jun-22 15:12 39.859381 -104.666978 180 5437ft 0kts
29-Jun-22 15:13 39.859381 -104.666978 180 5437ft 0kts
29-Jun-22 15:14 39.859381 -104.666978 180 5437ft 0kts
29-Jun-22 15:15 39.859381 -104.666978 180 5437ft 0kts
29-Jun-22 15:16 39.859381 -104.666978 179 5437ft 0kts
29-Jun-22 15:17 39.859381 -104.666978 179 5437ft 0kts
29-Jun-22 15:18 39.859381 -104.666978 179 5437ft 0kts
29-Jun-22 15:19 39.859381 -104.666978 179 5437ft 0kts
29-Jun-22 15:20 39.859381 -104.666978 179 5437ft 0kts
29-Jun-22 15:21 39.859381 -104.666978 179 5437ft 0kts
29-Jun-22 15:22 39.859381 -104.666978 179 5437ft 0kts
29-Jun-22 15:23 39.859381 -104.666978 179 5437ft 0kts
29-Jun-22 15:24 39.859829 -104.668356 283 5437ft 16kts
29-Jun-22 15:25 39.860017 -104.675369 267 5437ft 18kts
29-Jun-22 15:26 39.860222 -104.682095 267 5437ft 18kts
29-Jun-22 15:27 39.860109 -104.684200 156 5437ft 5kts
29-Jun-22 15:28 39.856779 -104.684007 179 5437ft 11kts
29-Jun-22 15:29 39.853525 -104.684025 180 5437ft 11kts
29-Jun-22 15:30 39.848371 -104.684080 180 5437ft 24kts
29-Jun-22 15:31 39.842102 -104.684154 181 5437ft 0kts
29-Jun-22 15:32 39.842102 -104.684154 181 5437ft 0kts
29-Jun-22 15:33 39.842102 -104.684154 181 5437ft 0kts
29-Jun-22 15:34 39.840665 -104.684907 267 5437ft 0kts
29-Jun-22 15:35 39.840663 -104.686597 273 5437ft 48kts
29-Jun-22 15:36 39.834913 -104.740932 259 5892ft 214kts
29-Jun-22 15:37 39.826576 -104.812182 290 6579ft 167kts
29-Jun-22 15:38 39.861118 -104.864877 324 8196ft 198kts
29-Jun-22 15:39 39.917389 -104.907409 314 8867ft 276kts
29-Jun-22 15:40 39.950521 -104.993804 286 12780ft 240kts
29-Jun-22 15:41 39.951256 -105.086703 256 15064ft 251kts
29-Jun-22 15:42 39.929678 -105.187299 257 15986ft 307kts
29-Jun-22 15:43 39.931894 -105.297431 282 17957ft 322kts
29-Jun-22 15:44 39.951175 -105.427061 273 18694ft 380kts
29-Jun-22 15:45 39.965731 -105.568067 277 20923ft 385kts
29-Jun-22 15:46 39.975736 -105.712730 273 22788ft 397kts
29-Jun-22 15:47 39.982853 -105.861608 273 24497ft 406kts
29-Jun-22 15:48 39.990152 -106.013966 273 26030ft 415kts
29-Jun-22 15:49 39.997545 -106.169326 273 27409ft 423kts
29-Jun-22 15:50 40.005058 -106.327655 273 28657ft 431kts
29-Jun-22 15:51 40.012722 -106.489312 273 29767ft 438kts
29-Jun-22 15:52 40.019330 -106.651954 272 30305ft 439kts
29-Jun-22 15:53 40.025913 -106.815270 272 30298ft 440kts
29-Jun-22 15:54 40.032402 -106.979108 272 30298ft 440kts
29-Jun-22 15:55 40.038758 -107.143280 272 30292ft 440kts
29-Jun-22 15:56 40.044931 -107.306875 272 30282ft 440kts
29-Jun-22 15:57 40.050938 -107.470336 272 30262ft 440kts
29-Jun-22 15:58 40.056836 -107.634822 272 30254ft 440kts
29-Jun-22 15:59 40.062646 -107.798842 272 30256ft 440kts
29-Jun-22 16:00 40.068935 -107.963244 273 30256ft 440kts
29-Jun-22 16:01 40.075976 -108.127287 273 30256ft 440kts
29-Jun-22 16:02 40.082956 -108.290794 274 30257ft 424kts
29-Jun-22 16:03 40.089318 -108.441371 274 30249ft 402kts
29-Jun-22 16:04 40.095595 -108.591236 274 30242ft 402kts
29-Jun-22 16:05 40.101866 -108.741704 273 30235ft 401kts
29-Jun-22 16:06 40.108142 -108.891609 273 30226ft 401kts
29-Jun-22 16:07 40.113358 -109.041691 272 30219ft 402kts
29-Jun-22 16:08 40.118586 -109.192800 270 30217ft 409kts
29-Jun-22 16:09 40.123794 -109.345973 270 30216ft 409kts
29-Jun-22 16:10 40.128883 -109.498852 270 30215ft 409kts
29-Jun-22 16:11 40.133856 -109.651895 270 30214ft 409kts
29-Jun-22 16:12 40.138694 -109.804529 270 30219ft 409kts
29-Jun-22 16:13 40.143465 -109.957543 270 30218ft 409kts
29-Jun-22 16:14 40.148268 -110.110037 269 30219ft 409kts
29-Jun-22 16:15 40.147227 -110.263395 267 30227ft 409kts
29-Jun-22 16:16 40.145674 -110.416233 267 30242ft 409kts
29-Jun-22 16:17 40.144031 -110.568932 267 30222ft 410kts
29-Jun-22 16:18 40.143555 -110.722567 266 30219ft 410kts
29-Jun-22 16:19 40.140997 -110.876829 266 29422ft 441kts
29-Jun-22 16:20 40.138514 -111.039485 267 26642ft 413kts
29-Jun-22 16:21 40.136533 -111.187696 268 24166ft 398kts
29-Jun-22 16:22 40.133851 -111.333811 268 21849ft 385kts
29-Jun-22 16:23 40.131403 -111.473325 268 19858ft 358kts
29-Jun-22 16:24 40.151218 -111.598300 291 18916ft 352kts
29-Jun-22 16:25 40.192502 -111.716907 292 18264ft 347kts
29-Jun-22 16:26 40.235199 -111.833574 292 17632ft 344kts
29-Jun-22 16:27 40.286421 -111.941800 320 16808ft 352kts
29-Jun-22 16:28 40.370448 -112.011086 324 15682ft 347kts
29-Jun-22 16:29 40.463756 -112.053129 348 14088ft 351kts
29-Jun-22 16:30 40.561155 -112.068127 349 12303ft 342kts
29-Jun-22 16:31 40.660164 -112.081521 354 11242ft 354kts
29-Jun-22 16:32 40.755737 -112.092546 354 10993ft 311kts
29-Jun-22 16:33 40.845765 -112.103636 353 11014ft 317kts
29-Jun-22 16:34 40.933091 -112.114204 350 10663ft 300kts
29-Jun-22 16:35 41.014919 -112.124017 351 9081ft 284kts
29-Jun-22 16:36 41.094749 -112.133510 352 9039ft 284kts
29-Jun-22 16:37 41.169778 -112.116855 59 9033ft 271kts
29-Jun-22 16:38 41.156650 -112.037038 140 9053ft 226kts
29-Jun-22 16:39 41.104192 -112.002756 182 9062ft 217kts
29-Jun-22 16:40 41.043712 -112.004289 179 8866ft 218kts
29-Jun-22 16:41 40.985496 -111.997454 180 7838ft 183kts
29-Jun-22 16:42 40.941204 -111.992277 181 6922ft 140kts
29-Jun-22 16:43 40.901663 -111.987948 177 6115ft 138kts
29-Jun-22 16:44 40.863214 -111.983440 177 5370ft 134kts
29-Jun-22 16:45 40.825133 -111.978983 176 4611ft 134kts
29-Jun-22 16:46 40.796952 -111.975712 175 4222ft 45kts
29-Jun-22 16:47 40.790915 -111.975726 221 4222ft 7kts
29-Jun-22 16:48 40.789630 -111.977070 226 4222ft 0kts
29-Jun-22 16:49 40.789630 -111.977070 226 4222ft 0kts
29-Jun-22 16:50 40.789630 -111.977070 226 4222ft 0kts

Navigation Log

Ident Type
Flight plan parsing failed, navigation log unavailable